Terminal Aerodrome Forecast
Issued by NWS Dallas/Fort Worth, TX

Home | Current Version | Previous Version | Text Only | Print | Product List | Glossary On
Versions: 1 2 3 4 5 6 7 8 9 10 11 12 13 14 15 16 17 18 19 20 21 22 23 24 25 26 27
000
FTUS44 KFWD 180900 AAA
TAFDFW
TAF AMD
KDFW 180904Z 1809/1912 17004KT P6SM SCT015 SCT100 BKN150
     FM181400 14005KT P6SM VCSH BKN018 OVC150
     FM182000 16008KT P6SM VCTS SCT050CB
     FM190200 15006KT P6SM SCT150=

USA.gov is the U.S. government's official web portal to all federal, state and local government web resources and services.